Time;durP1;ratioP1;P1;durP2;ratioP2;P2;SDS_P1;SDS_P2;PMS_P1;PMS_P2;Temp;Humidity;BMP_temperature;BMP_pressure;BME280_temperature;BME280_humidity;BME280_pressure;Samples;Min_cycle;Max_cycle;Signal;HPM_P1;HPM_P2
2022/08/20 00:02:58;;;;;;;3.03;2.67;;;;;;;-144.22;100.00;60274.75;7562609;23;20219;-70
2022/08/20 00:06:08;;;;;;;3.20;3.00;;;;;;;-144.22;100.00;60274.75;7587902;23;20223;-69
2022/08/20 00:09:10;;;;;;;3.27;2.97;;;;;;;-144.22;100.00;60274.75;7614414;23;20212;-69
2022/08/20 00:12:16;;;;;;;3.33;2.70;;;;;;;-144.22;100.00;60274.75;7589139;23;20204;-70
2022/08/20 00:15:22;;;;;;;4.90;3.00;;;;;;;-144.22;100.00;60274.75;7616747;23;20187;-70
2022/08/20 00:18:25;;;;;;;3.20;2.63;;;;;;;-144.22;100.00;60274.75;7614136;23;20215;-70
2022/08/20 00:21:28;;;;;;;3.40;3.10;;;;;;;-144.22;100.00;60274.75;7614857;23;20224;-69
2022/08/20 00:24:32;;;;;;;2.60;2.40;;;;;;;-144.22;100.00;60274.75;7612872;23;20557;-70
2022/08/20 00:27:35;;;;;;;2.63;2.43;;;;;;;-144.22;100.00;60274.75;7587719;23;20255;-70
2022/08/20 00:30:39;;;;;;;3.27;2.87;;;;;;;-144.22;100.00;60274.75;7615151;23;20635;-70
2022/08/20 00:33:41;;;;;;;3.43;3.13;;;;;;;-144.22;100.00;60274.75;7613144;23;20248;-70
2022/08/20 00:36:44;;;;;;;3.33;3.03;;;;;;;-144.22;100.00;60274.75;7590395;23;20212;-70
2022/08/20 00:39:46;;;;;;;3.30;3.00;;;;;;;-144.22;100.00;60274.75;7589049;23;20583;-70
2022/08/20 00:42:52;;;;;;;3.60;3.30;;;;;;;-144.22;100.00;60274.75;7615970;23;20208;-70
2022/08/20 00:45:55;;;;;;;3.47;3.20;;;;;;;-144.22;100.00;60274.75;7615574;23;20208;-70
2022/08/20 00:48:57;;;;;;;3.37;2.93;;;;;;;-144.22;100.00;60274.75;7587367;23;20212;-70
2022/08/20 00:52:06;;;;;;;3.33;2.57;;;;;;;-144.22;100.00;60274.75;7613266;23;20208;-70
2022/08/20 00:55:10;;;;;;;3.80;3.50;;;;;;;-144.22;100.00;60274.75;7588515;23;20212;-70
2022/08/20 00:58:12;;;;;;;3.07;2.83;;;;;;;-144.22;100.00;60274.75;7621338;23;20607;-70
2022/08/20 01:05:30;;;;;;;4.03;3.10;;;;;;;-144.22;100.00;60274.75;7573897;23;20209;-70
2022/08/20 01:08:32;;;;;;;2.37;2.23;;;;;;;-144.22;100.00;60274.75;7577429;23;20693;-70
2022/08/20 01:11:35;;;;;;;3.60;3.17;;;;;;;-144.22;100.00;60274.75;7576630;23;20597;-70
2022/08/20 01:14:44;;;;;;;3.47;3.17;;;;;;;-144.22;100.00;60274.75;7580668;23;20287;-70
2022/08/20 01:17:50;;;;;;;3.30;2.87;;;;;;;-144.22;100.00;60274.75;7580865;23;20275;-70
2022/08/20 01:20:58;;;;;;;3.03;2.83;;;;;;;-144.22;100.00;60274.75;7578847;23;20321;-71
2022/08/20 01:24:16;;;;;;;3.00;2.73;;;;;;;-144.22;100.00;60274.75;7579427;23;20685;-71
2022/08/20 01:27:18;;;;;;;2.80;2.50;;;;;;;-144.22;100.00;60274.75;7581292;23;20197;-71
2022/08/20 01:30:25;;;;;;;2.70;2.20;;;;;;;-144.22;100.00;60274.75;7578037;23;20439;-71
2022/08/20 01:33:27;;;;;;;3.70;2.47;;;;;;;-144.22;100.00;60274.75;7579200;23;20217;-69
2022/08/20 01:36:51;;;;;;;2.20;2.00;;;;;;;-144.22;100.00;60274.75;7579351;23;20209;-71
2022/08/20 01:39:53;;;;;;;2.17;2.00;;;;;;;-144.22;100.00;60274.75;7581162;23;20297;-69
2022/08/20 01:42:55;;;;;;;2.23;2.10;;;;;;;-144.22;100.00;60274.75;7579972;23;20209;-71
2022/08/20 01:46:00;;;;;;;2.17;1.90;;;;;;;-144.22;100.00;60274.75;7578536;23;20217;-71
2022/08/20 01:49:18;;;;;;;1.80;1.70;;;;;;;-144.22;100.00;60274.75;7556355;23;20856;-70
2022/08/20 01:52:30;;;;;;;1.80;1.70;;;;;;;-144.22;100.00;60274.75;7579175;23;20292;-70
2022/08/20 01:55:32;;;;;;;3.90;1.80;;;;;;;-144.22;100.00;60274.75;7578630;23;20213;-70
2022/08/20 01:58:36;;;;;;;2.53;1.53;;;;;;;-144.22;100.00;60274.75;7580404;23;20603;-70
2022/08/20 02:01:39;;;;;;;1.70;1.60;;;;;;;-144.22;100.00;60274.75;7579228;23;20275;-70
2022/08/20 02:04:47;;;;;;;2.40;2.20;;;;;;;-144.22;100.00;60274.75;7606213;23;20267;-70
2022/08/20 02:07:50;;;;;;;2.00;1.73;;;;;;;-144.22;100.00;60274.75;7618671;23;20684;-70
2022/08/20 02:10:52;;;;;;;1.60;1.50;;;;;;;-144.22;100.00;60274.75;7622909;23;20295;-70
2022/08/20 02:13:56;;;;;;;1.30;1.20;;;;;;;-144.22;100.00;60274.75;7573476;23;20359;-70
2022/08/20 02:16:59;;;;;;;1.40;1.30;;;;;;;-144.22;100.00;60274.75;7615638;23;20556;-70
2022/08/20 02:20:14;;;;;;;1.70;1.40;;;;;;;-144.22;100.00;60274.75;7590696;23;20680;-70
2022/08/20 02:23:17;;;;;;;1.90;1.60;;;;;;;-144.22;100.00;60274.75;7589304;23;20299;-71
2022/08/20 02:26:20;;;;;;;1.90;1.50;;;;;;;-144.22;100.00;60274.75;7591294;23;20743;-71
2022/08/20 02:29:22;;;;;;;1.70;1.60;;;;;;;-144.22;100.00;60274.75;7590491;23;20219;-71
2022/08/20 02:32:25;;;;;;;1.30;1.20;;;;;;;-144.22;100.00;60274.75;7589409;23;20771;-71
2022/08/20 02:35:37;;;;;;;1.73;1.10;;;;;;;-144.22;100.00;60274.75;7614423;23;20209;-70
2022/08/20 02:38:40;;;;;;;0.97;0.97;;;;;;;-144.22;100.00;60274.75;7616451;23;20631;-70
2022/08/20 02:41:42;;;;;;;1.63;1.37;;;;;;;-144.22;100.00;60274.75;7615603;23;20688;-71
2022/08/20 02:44:45;;;;;;;1.50;1.40;;;;;;;-144.22;100.00;60274.75;7588942;23;20235;-70
2022/08/20 02:47:47;;;;;;;1.63;1.20;;;;;;;-144.22;100.00;60274.75;7589986;23;20220;-70
2022/08/20 02:50:55;;;;;;;1.60;1.10;;;;;;;-144.22;100.00;60274.75;7616164;23;20634;-69
2022/08/20 02:53:57;;;;;;;1.37;1.07;;;;;;;-144.22;100.00;60274.75;7614572;23;20673;-70
2022/08/20 02:57:01;;;;;;;1.20;1.10;;;;;;;-144.22;100.00;60274.75;7614587;23;20219;-71
2022/08/20 03:00:17;;;;;;;1.00;0.87;;;;;;;-144.22;100.00;60274.75;7614440;23;20287;-70
2022/08/20 03:03:21;;;;;;;0.90;0.80;;;;;;;-144.22;100.00;60274.75;7614969;23;20657;-69
2022/08/20 03:06:24;;;;;;;1.00;0.90;;;;;;;-144.22;100.00;60274.75;7621335;23;20243;-70
2022/08/20 03:09:27;;;;;;;0.80;0.80;;;;;;;-144.22;100.00;60274.75;7589363;23;20288;-70
2022/08/20 03:12:28;;;;;;;0.87;0.83;;;;;;;-144.22;100.00;60274.75;7588568;23;20208;-70
2022/08/20 03:15:32;;;;;;;0.70;0.70;;;;;;;-144.22;100.00;60274.75;7614597;23;20204;-70
2022/08/20 03:18:43;;;;;;;0.93;0.70;;;;;;;-144.22;100.00;60274.75;7589384;23;20577;-70
2022/08/20 03:21:45;;;;;;;0.80;0.80;;;;;;;-144.22;100.00;60274.75;7589579;23;20553;-70
2022/08/20 03:24:47;;;;;;;0.90;0.63;;;;;;;-144.22;100.00;60274.75;7589168;23;20291;-70
2022/08/20 03:27:49;;;;;;;0.60;0.60;;;;;;;-144.22;100.00;60274.75;7614431;23;20270;-68
2022/08/20 03:30:55;;;;;;;0.70;0.70;;;;;;;-144.22;100.00;60274.75;7613898;23;20228;-69
2022/08/20 03:33:58;;;;;;;1.20;0.90;;;;;;;-144.22;100.00;60274.75;7614868;23;20537;-69
2022/08/20 03:37:00;;;;;;;0.70;0.70;;;;;;;-144.22;100.00;60274.75;7588692;23;20595;-70
2022/08/20 03:40:09;;;;;;;0.80;0.80;;;;;;;-144.22;100.00;60274.75;7614371;23;20232;-69
2022/08/20 03:43:12;;;;;;;1.03;0.70;;;;;;;-144.22;100.00;60274.75;7588966;23;20215;-69
2022/08/20 03:46:14;;;;;;;1.73;0.77;;;;;;;-144.22;100.00;60274.75;7587638;23;20235;-70
2022/08/20 03:49:24;;;;;;;0.90;0.70;;;;;;;-144.22;100.00;60274.75;7614376;23;20688;-69
2022/08/20 03:52:28;;;;;;;0.93;0.87;;;;;;;-144.22;100.00;60274.75;7589088;23;20598;-69
2022/08/20 03:55:30;;;;;;;2.10;0.70;;;;;;;-144.22;100.00;60274.75;7590385;23;20232;-69
2022/08/20 03:58:34;;;;;;;0.60;0.60;;;;;;;-144.22;100.00;60274.75;7615544;23;20565;-69
2022/08/20 04:01:37;;;;;;;0.90;0.77;;;;;;;-144.22;100.00;60274.75;7613614;23;20684;-70
2022/08/20 04:04:53;;;;;;;0.80;0.80;;;;;;;-144.22;100.00;60274.75;7614945;23;20217;-70
2022/08/20 04:08:11;;;;;;;0.60;0.60;;;;;;;-144.22;100.00;60274.75;7561335;23;20222;-69
2022/08/20 04:11:13;;;;;;;0.70;0.70;;;;;;;-144.22;100.00;60274.75;7589027;23;20229;-69
2022/08/20 04:14:15;;;;;;;1.30;0.73;;;;;;;-144.22;100.00;60274.75;7613411;23;20271;-68
2022/08/20 04:17:22;;;;;;;1.17;0.83;;;;;;;-144.22;100.00;60274.75;7591152;23;20229;-69
2022/08/20 04:20:24;;;;;;;0.73;0.73;;;;;;;-144.22;100.00;60274.75;7588386;23;20630;-69
2022/08/20 04:23:26;;;;;;;0.87;0.70;;;;;;;-144.22;100.00;60274.75;7613725;23;20684;-68
2022/08/20 04:26:29;;;;;;;0.60;0.57;;;;;;;-144.22;100.00;60274.75;7613276;23;20593;-69
2022/08/20 04:29:32;;;;;;;2.03;0.80;;;;;;;-144.22;100.00;60274.75;7614061;23;20287;-68
2022/08/20 04:32:37;;;;;;;0.57;0.57;;;;;;;-144.22;100.00;60274.75;7617064;23;20216;-69
2022/08/20 04:35:39;;;;;;;0.80;0.80;;;;;;;-144.22;100.00;60274.75;7613160;23;20703;-69
2022/08/20 04:38:41;;;;;;;1.33;0.70;;;;;;;-144.22;100.00;60274.75;7613186;23;20680;-68
2022/08/20 04:41:51;;;;;;;0.80;0.70;;;;;;;-144.22;100.00;60274.75;7614118;23;20549;-68
2022/08/20 04:44:54;;;;;;;1.70;0.77;;;;;;;-144.22;100.00;60274.75;7587963;23;20593;-68
2022/08/20 04:48:03;;;;;;;0.97;0.87;;;;;;;-144.22;100.00;60274.75;7589605;23;20216;-68
2022/08/20 04:51:07;;;;;;;0.67;0.67;;;;;;;-144.22;100.00;60274.75;7617323;23;20201;-68
2022/08/20 04:54:10;;;;;;;0.93;0.67;;;;;;;-144.22;100.00;60274.75;7617795;23;20594;-69
2022/08/20 04:57:12;;;;;;;0.80;0.80;;;;;;;-144.22;100.00;60274.75;7618673;23;20256;-69
2022/08/20 05:00:16;;;;;;;0.63;0.63;;;;;;;-144.22;100.00;60274.75;7618332;23;20308;-68
2022/08/20 05:03:18;;;;;;;0.70;0.70;;;;;;;-144.22;100.00;60274.75;7619887;23;20224;-69
2022/08/20 05:06:24;;;;;;;1.57;0.80;;;;;;;-144.22;100.00;60274.75;7618085;23;20577;-69
2022/08/20 05:09:26;;;;;;;0.90;0.90;;;;;;;-144.22;100.00;60274.75;7619394;23;20669;-69
2022/08/20 05:12:28;;;;;;;0.60;0.60;;;;;;;-144.22;100.00;60274.75;7619034;23;20207;-69
2022/08/20 05:15:31;;;;;;;0.90;0.70;;;;;;;-144.22;100.00;60274.75;7591403;23;20271;-69
2022/08/20 05:18:33;;;;;;;1.03;0.70;;;;;;;-144.22;100.00;60274.75;7568196;23;20235;-69
2022/08/20 05:21:36;;;;;;;2.60;1.00;;;;;;;-144.22;100.00;60274.75;7617095;23;20298;-69
2022/08/20 05:24:38;;;;;;;0.80;0.77;;;;;;;-144.22;100.00;60274.75;7592674;23;20215;-69
2022/08/20 05:27:41;;;;;;;1.30;0.67;;;;;;;-144.22;100.00;60274.75;7591305;23;20554;-69
2022/08/20 05:30:51;;;;;;;0.50;0.50;;;;;;;-144.22;100.00;60274.75;7619436;23;20687;-69
2022/08/20 05:33:55;;;;;;;0.70;0.67;;;;;;;-144.22;100.00;60274.75;7617024;23;20644;-69
2022/08/20 05:36:58;;;;;;;0.70;0.60;;;;;;;-144.22;100.00;60274.75;7592521;23;20221;-70
2022/08/20 05:40:06;;;;;;;0.50;0.50;;;;;;;-144.22;100.00;60274.75;7591070;23;20302;-70
2022/08/20 05:43:08;;;;;;;0.50;0.50;;;;;;;-144.22;100.00;60274.75;7591789;23;20212;-70
2022/08/20 05:46:12;;;;;;;0.50;0.50;;;;;;;-144.22;100.00;60274.75;7618241;23;20691;-70
2022/08/20 05:49:19;;;;;;;1.77;0.60;;;;;;;-144.22;100.00;60274.75;7617352;23;20263;-70
2022/08/20 05:52:21;;;;;;;0.77;0.77;;;;;;;-144.22;100.00;60274.75;7617940;23;20720;-70
2022/08/20 05:55:23;;;;;;;0.97;0.80;;;;;;;-144.22;100.00;60274.75;7617691;23;20216;-69
2022/08/20 05:58:28;;;;;;;0.50;0.50;;;;;;;-144.22;100.00;60274.75;7617338;23;20517;-71
2022/08/20 06:01:31;;;;;;;1.13;0.77;;;;;;;-144.22;100.00;60274.75;7617075;23;20219;-70
2022/08/20 06:04:34;;;;;;;1.87;0.70;;;;;;;-144.22;100.00;60274.75;7616000;23;20222;-70
2022/08/20 06:07:37;;;;;;;0.60;0.60;;;;;;;-144.22;100.00;60274.75;7615562;23;20291;-69
2022/08/20 06:10:40;;;;;;;0.83;0.77;;;;;;;-144.22;100.00;60274.75;7614508;23;20672;-70
2022/08/20 06:13:44;;;;;;;2.10;0.70;;;;;;;-144.22;100.00;60274.75;7614595;23;20222;-70
2022/08/20 06:16:46;;;;;;;0.60;0.60;;;;;;;-144.22;100.00;60274.75;7616805;23;20518;-70
2022/08/20 06:20:04;;;;;;;0.60;0.60;;;;;;;-144.22;100.00;60274.75;7614673;23;20264;-69
2022/08/20 06:23:07;;;;;;;0.70;0.70;;;;;;;-144.22;100.00;60274.75;7588595;23;20233;-69
2022/08/20 06:26:10;;;;;;;1.23;0.70;;;;;;;-144.22;100.00;60274.75;7615964;23;20291;-70
2022/08/20 06:29:12;;;;;;;0.67;0.60;;;;;;;-144.22;100.00;60274.75;7588959;23;20631;-70
2022/08/20 06:32:15;;;;;;;0.90;0.60;;;;;;;-144.22;100.00;60274.75;7613839;23;20254;-70
2022/08/20 06:35:17;;;;;;;0.67;0.63;;;;;;;-144.22;100.00;60274.75;7616145;23;20217;-69
2022/08/20 06:38:21;;;;;;;0.80;0.80;;;;;;;-144.22;100.00;60274.75;7614319;23;20283;-70
2022/08/20 06:41:23;;;;;;;0.80;0.73;;;;;;;-144.22;100.00;60274.75;7614490;23;20409;-70
2022/08/20 06:44:37;;;;;;;0.40;0.40;;;;;;;-144.22;100.00;60274.75;7614803;23;20218;-70
2022/08/20 06:47:41;;;;;;;0.60;0.60;;;;;;;-144.22;100.00;60274.75;7589911;23;20243;-71
2022/08/20 06:50:45;;;;;;;0.57;0.57;;;;;;;-144.22;100.00;60274.75;7588721;23;20220;-70
2022/08/20 06:53:48;;;;;;;0.50;0.50;;;;;;;-144.22;100.00;60274.75;7588765;23;20694;-70
2022/08/20 06:56:52;;;;;;;0.57;0.57;;;;;;;-144.22;100.00;60274.75;7588991;23;20232;-70
2022/08/20 06:59:55;;;;;;;0.87;0.53;;;;;;;-144.22;100.00;60274.75;7589079;23;20223;-71
2022/08/20 07:02:59;;;;;;;0.87;0.60;;;;;;;-144.22;100.00;60274.75;7615275;23;20213;-71
2022/08/20 07:06:01;;;;;;;0.60;0.50;;;;;;;-144.22;100.00;60274.75;7589462;23;20202;-70
2022/08/20 07:09:03;;;;;;;0.63;0.60;;;;;;;-144.22;100.00;60274.75;7616316;23;20252;-70
2022/08/20 07:12:05;;;;;;;0.50;0.50;;;;;;;-144.22;100.00;60274.75;7588594;23;20258;-70
2022/08/20 07:15:10;;;;;;;0.73;0.50;;;;;;;-144.22;100.00;60274.75;7588987;23;20251;-70
2022/08/20 07:18:13;;;;;;;1.03;0.63;;;;;;;-144.22;100.00;60274.75;7614699;23;20200;-70
2022/08/20 07:21:16;;;;;;;0.50;0.50;;;;;;;-144.22;100.00;60274.75;7588571;23;20231;-71
2022/08/20 07:24:18;;;;;;;0.83;0.67;;;;;;;-144.22;100.00;60274.75;7615079;23;20177;-71
2022/08/20 07:27:21;;;;;;;1.03;0.63;;;;;;;-144.22;100.00;60274.75;7614148;23;20235;-70
2022/08/20 07:33:58;;;;;;;0.90;0.40;;;;;;;-144.22;100.00;60274.75;7589214;23;20240;-70
2022/08/20 07:37:00;;;;;;;1.43;0.50;;;;;;;-144.22;100.00;60274.75;7564148;23;20227;-69
2022/08/20 07:40:03;;;;;;;1.07;0.60;;;;;;;-144.22;100.00;60274.75;7615028;23;20216;-70
2022/08/20 07:43:05;;;;;;;1.33;0.47;;;;;;;-144.22;100.00;60274.75;7614237;23;20219;-70
2022/08/20 07:46:10;;;;;;;0.50;0.50;;;;;;;-144.22;100.00;60274.75;7565220;23;20291;-70
2022/08/20 07:49:12;;;;;;;0.87;0.50;;;;;;;-144.22;100.00;60274.75;7614508;23;20212;-70
2022/08/20 07:52:14;;;;;;;0.47;0.47;;;;;;;-144.22;100.00;60274.75;7612863;23;20216;-69
2022/08/20 07:55:17;;;;;;;0.47;0.47;;;;;;;-144.22;100.00;60274.75;7613930;23;20216;-68
2022/08/20 07:58:22;;;;;;;0.47;0.47;;;;;;;-144.22;100.00;60274.75;7614328;23;20220;-68
2022/08/20 08:01:34;;;;;;;0.80;0.63;;;;;;;-144.22;100.00;60274.75;7612820;23;20244;-69
2022/08/20 08:04:37;;;;;;;0.60;0.60;;;;;;;-144.22;100.00;60274.75;7612858;23;20216;-69
2022/08/20 08:07:40;;;;;;;0.67;0.53;;;;;;;-144.22;100.00;60274.75;7614823;23;20216;-69
2022/08/20 08:10:47;;;;;;;0.60;0.60;;;;;;;-144.22;100.00;60274.75;7588840;23;20216;-71
2022/08/20 08:14:05;;;;;;;0.60;0.50;;;;;;;-144.22;100.00;60274.75;7613972;23;20341;-72
2022/08/20 08:17:08;;;;;;;0.70;0.70;;;;;;;-144.22;100.00;60274.75;7615237;23;20303;-72
2022/08/20 08:20:11;;;;;;;0.53;0.47;;;;;;;-144.22;100.00;60274.75;7589118;23;20204;-71
2022/08/20 08:23:14;;;;;;;1.17;0.57;;;;;;;-144.22;100.00;60274.75;7617389;23;20243;-72
2022/08/20 08:26:32;;;;;;;1.33;0.70;;;;;;;-144.22;100.00;60274.75;7614355;23;20218;-70
2022/08/20 08:29:35;;;;;;;0.70;0.50;;;;;;;-144.22;100.00;60274.75;7612384;23;20212;-69
2022/08/20 08:33:26;;;;;;;0.40;0.40;;;;;;;-144.22;100.00;60274.75;7587426;23;20215;-70
2022/08/20 08:36:08;;;;;;;0.40;0.40;;;;;;;-144.22;100.00;60274.75;7612030;23;20339;-70
2022/08/20 08:39:10;;;;;;;0.80;0.50;;;;;;;-144.22;100.00;60274.75;7614986;23;20263;-70
2022/08/20 08:42:34;;;;;;;0.53;0.50;;;;;;;-144.22;100.00;60274.75;7613834;23;20207;-70
2022/08/20 08:45:44;;;;;;;0.40;0.40;;;;;;;-144.22;100.00;60274.75;7587134;23;20624;-71
2022/08/20 08:48:52;;;;;;;0.50;0.50;;;;;;;-144.22;100.00;60274.75;7612035;23;20602;-73
2022/08/20 08:52:11;;;;;;;0.50;0.50;;;;;;;-144.22;100.00;60274.75;7610525;23;20215;-70
2022/08/20 08:55:18;;;;;;;3.20;0.60;;;;;;;-144.22;100.00;60274.75;7611704;23;20677;-70
2022/08/20 08:58:20;;;;;;;0.40;0.40;;;;;;;-144.22;100.00;60274.75;7614283;23;20212;-70
2022/08/20 09:01:24;;;;;;;0.87;0.60;;;;;;;-144.22;100.00;60274.75;7613373;23;20212;-70
2022/08/20 09:04:46;;;;;;;0.50;0.50;;;;;;;-144.22;100.00;60274.75;7574875;23;20535;-70
2022/08/20 09:07:52;;;;;;;1.47;0.60;;;;;;;-144.22;100.00;60274.75;7576872;23;20260;-70
2022/08/20 09:11:05;;;;;;;0.60;0.60;;;;;;;-144.22;100.00;60274.75;7575564;23;20296;-69
2022/08/20 09:14:07;;;;;;;1.07;0.60;;;;;;;-144.22;100.00;60274.75;7574606;23;20316;-69
2022/08/20 09:17:09;;;;;;;0.60;0.60;;;;;;;-144.22;100.00;60274.75;7573426;23;20317;-70
2022/08/20 09:20:11;;;;;;;0.87;0.50;;;;;;;-144.22;100.00;60274.75;7575523;23;20212;-70
2022/08/20 09:23:14;;;;;;;1.00;0.50;;;;;;;-144.22;100.00;60274.75;7577263;23;20263;-70
2022/08/20 09:26:15;;;;;;;0.38;0.38;;;;;;;-144.22;100.00;60274.75;7577278;23;20748;-70
2022/08/20 09:29:17;;;;;;;2.78;0.47;;;;;;;-144.22;100.00;60274.75;7576039;23;20209;-69
2022/08/20 09:32:21;;;;;;;0.60;0.60;;;;;;;-144.22;100.00;60274.75;7574682;23;20522;-70
2022/08/20 09:35:24;;;;;;;0.50;0.50;;;;;;;-144.22;100.00;60274.75;7578398;23;20216;-70
2022/08/20 09:38:26;;;;;;;0.88;0.60;;;;;;;-144.22;100.00;60274.75;7581181;23;20605;-71
2022/08/20 09:41:28;;;;;;;0.40;0.40;;;;;;;-144.22;100.00;60274.75;7579315;23;20213;-70
2022/08/20 09:44:30;;;;;;;1.65;0.52;;;;;;;-144.22;100.00;60274.75;7579115;23;20216;-70
2022/08/20 09:47:33;;;;;;;0.70;0.50;;;;;;;-144.22;100.00;60274.75;7583863;23;20217;-70
2022/08/20 09:50:36;;;;;;;0.47;0.47;;;;;;;-144.22;100.00;60274.75;7579841;23;20213;-71
2022/08/20 09:53:38;;;;;;;0.50;0.50;;;;;;;-144.22;100.00;60274.75;7578354;23;20300;-70
2022/08/20 09:56:40;;;;;;;0.80;0.60;;;;;;;-144.22;100.00;60274.75;7576412;23;20217;-69
2022/08/20 09:59:47;;;;;;;0.50;0.50;;;;;;;-144.22;100.00;60274.75;7580528;23;20213;-70
2022/08/20 11:02:21;;;;;;;0.60;0.60;;;;;;;-144.22;100.00;60274.75;4840914;23;22083;-67
2022/08/20 11:05:24;;;;;;;0.50;0.50;;;;;;;-144.22;100.00;60274.75;7614207;23;20575;-70
2022/08/20 11:08:26;;;;;;;0.50;0.50;;;;;;;-144.22;100.00;60274.75;7613743;23;20212;-71
2022/08/20 11:11:35;;;;;;;0.65;0.60;;;;;;;-144.22;100.00;60274.75;7615755;23;20328;-69
2022/08/20 11:14:38;;;;;;;2.15;0.50;;;;;;;-144.22;100.00;60274.75;7613110;23;20213;-68
2022/08/20 11:17:42;;;;;;;0.50;0.50;;;;;;;-144.22;100.00;60274.75;7614742;23;20236;-69
2022/08/20 11:20:44;;;;;;;0.50;0.50;;;;;;;-144.22;100.00;60274.75;7589816;23;20574;-69
2022/08/20 11:23:46;;;;;;;1.02;0.60;;;;;;;-144.22;100.00;60274.75;7613216;23;20287;-68
2022/08/20 11:26:49;;;;;;;0.40;0.40;;;;;;;-144.22;100.00;60274.75;7613895;23;20299;-68
2022/08/20 11:29:53;;;;;;;0.40;0.40;;;;;;;-144.22;100.00;60274.75;7614606;23;20208;-68
2022/08/20 11:32:56;;;;;;;1.95;0.68;;;;;;;-144.22;100.00;60274.75;7613934;23;20589;-68
2022/08/20 11:35:58;;;;;;;0.85;0.50;;;;;;;-144.22;100.00;60274.75;7589498;23;20220;-68
2022/08/20 11:39:00;;;;;;;0.63;0.57;;;;;;;-144.22;100.00;60274.75;7615013;23;20668;-69
2022/08/20 11:42:02;;;;;;;0.60;0.60;;;;;;;-144.22;100.00;60274.75;7619850;23;20571;-69
2022/08/20 11:45:06;;;;;;;0.60;0.60;;;;;;;-144.22;100.00;60274.75;7621419;23;20184;-70
2022/08/20 11:48:08;;;;;;;0.90;0.90;;;;;;;-144.22;100.00;60274.75;7613728;23;20869;-67
2022/08/20 11:51:10;;;;;;;1.23;0.70;;;;;;;-144.22;100.00;60274.75;7590434;23;20578;-69
2022/08/20 11:54:12;;;;;;;0.90;0.90;;;;;;;-144.22;100.00;60274.75;7587610;23;20193;-68
2022/08/20 11:57:24;;;;;;;0.90;0.90;;;;;;;-144.22;100.00;60274.75;7588630;23;20184;-69
2022/08/20 12:00:29;;;;;;;1.13;0.90;;;;;;;-144.22;100.00;60274.75;7613515;23;20243;-68
2022/08/20 12:03:34;;;;;;;1.00;0.90;;;;;;;-144.22;100.00;60274.75;7580411;23;20547;-68
2022/08/20 12:06:36;;;;;;;0.90;0.90;;;;;;;-144.22;100.00;60274.75;7614847;23;20214;-68
2022/08/20 12:09:39;;;;;;;0.80;0.80;;;;;;;-144.22;100.00;60274.75;7613094;23;20258;-68
2022/08/20 12:12:52;;;;;;;0.90;0.90;;;;;;;-144.22;100.00;60274.75;7613927;23;20685;-68
2022/08/20 12:15:54;;;;;;;1.70;0.90;;;;;;;-144.22;100.00;60274.75;7614035;23;20638;-67
2022/08/20 12:18:56;;;;;;;0.88;0.88;;;;;;;-144.22;100.00;60274.75;7613880;23;20263;-68
2022/08/20 12:21:58;;;;;;;1.15;1.08;;;;;;;-144.22;100.00;60274.75;7588502;23;20212;-67
2022/08/20 12:25:20;;;;;;;0.90;0.90;;;;;;;-144.22;100.00;60274.75;7613871;23;20271;-68
2022/08/20 12:28:22;;;;;;;1.08;0.90;;;;;;;-144.22;100.00;60274.75;7613453;23;20216;-67
2022/08/20 12:31:26;;;;;;;1.23;1.13;;;;;;;-144.22;100.00;60274.75;7613395;23;20222;-70
2022/08/20 12:34:28;;;;;;;1.25;1.15;;;;;;;-144.22;100.00;60274.75;7585638;23;20208;-68
2022/08/20 12:37:32;;;;;;;0.93;0.88;;;;;;;-144.22;100.00;60274.75;7583300;23;20220;-67
2022/08/20 12:40:34;;;;;;;1.17;1.17;;;;;;;-144.22;100.00;60274.75;7583399;23;20604;-69
2022/08/20 12:43:36;;;;;;;1.02;1.00;;;;;;;-144.22;100.00;60274.75;7620418;23;20295;-69
2022/08/20 12:46:38;;;;;;;1.30;1.20;;;;;;;-144.22;100.00;60274.75;7616905;23;20212;-71
2022/08/20 12:49:44;;;;;;;2.38;1.20;;;;;;;-144.22;100.00;60274.75;7617257;23;20236;-72
2022/08/20 12:52:47;;;;;;;1.42;1.33;;;;;;;-144.22;100.00;60274.75;7606103;23;20258;-67
2022/08/20 12:55:49;;;;;;;2.00;1.38;;;;;;;-144.22;100.00;60274.75;7577886;23;20530;-68
2022/08/20 12:58:51;;;;;;;2.08;1.38;;;;;;;-144.22;100.00;60274.75;7605678;23;20727;-68
2022/08/20 13:01:54;;;;;;;1.38;1.10;;;;;;;-144.22;100.00;60274.75;7603530;23;20469;-68
2022/08/20 13:04:56;;;;;;;1.20;1.10;;;;;;;-144.22;100.00;60274.75;7576150;23;20208;-68
2022/08/20 13:08:08;;;;;;;1.65;1.55;;;;;;;-144.22;100.00;60274.75;7603615;23;20224;-68
2022/08/20 13:11:10;;;;;;;1.00;1.00;;;;;;;-144.22;100.00;60274.75;7580270;23;20230;-68
2022/08/20 13:17:43;;;;;;;1.23;1.13;;;;;;;-144.22;100.00;60274.75;7605312;23;20239;-60
2022/08/20 13:20:45;;;;;;;1.10;1.00;;;;;;;-144.22;100.00;60274.75;7602169;23;20212;-67
2022/08/20 13:23:47;;;;;;;1.30;1.20;;;;;;;-144.22;100.00;60274.75;7604656;23;20211;-68
2022/08/20 13:26:50;;;;;;;1.00;1.00;;;;;;;-144.22;100.00;60274.75;7578253;23;20532;-69
2022/08/20 13:29:55;;;;;;;1.05;1.00;;;;;;;-144.22;100.00;60274.75;7580923;23;20636;-68
2022/08/20 13:32:59;;;;;;;0.90;0.90;;;;;;;-144.22;100.00;60274.75;7601036;23;20764;-67
2022/08/20 13:36:02;;;;;;;1.20;0.90;;;;;;;-144.22;100.00;60274.75;7599584;23;20223;-67
2022/08/20 13:39:06;;;;;;;0.95;0.85;;;;;;;-144.22;100.00;60274.75;7603549;23;20184;-65
2022/08/20 13:42:09;;;;;;;0.75;0.70;;;;;;;-144.22;100.00;60274.75;7609977;23;20184;-66
2022/08/20 13:45:12;;;;;;;0.93;0.88;;;;;;;-144.22;100.00;60274.75;7611247;23;20212;-63
2022/08/20 13:48:15;;;;;;;0.75;0.75;;;;;;;-144.22;100.00;60274.75;7580799;23;20220;-65
2022/08/20 13:51:17;;;;;;;0.60;0.60;;;;;;;-144.22;100.00;60274.75;7579694;23;20181;-65
2022/08/20 13:54:22;;;;;;;0.70;0.70;;;;;;;-144.22;100.00;60274.75;7605165;23;20224;-66
2022/08/20 13:57:30;;;;;;;1.08;0.80;;;;;;;-144.22;100.00;60274.75;7606128;23;20557;-66
2022/08/20 14:00:34;;;;;;;0.70;0.70;;;;;;;-144.22;100.00;60274.75;7603200;23;20212;-69
2022/08/20 14:03:37;;;;;;;1.08;1.00;;;;;;;-144.22;100.00;60274.75;7607510;23;20212;-65
2022/08/20 14:06:39;;;;;;;0.90;0.90;;;;;;;-144.22;100.00;60274.75;7588620;23;20235;-69
2022/08/20 14:09:43;;;;;;;1.45;0.70;;;;;;;-144.22;100.00;60274.75;7588640;23;20610;-66
2022/08/20 14:12:46;;;;;;;0.98;0.88;;;;;;;-144.22;100.00;60274.75;7611247;23;20560;-69
2022/08/20 14:15:49;;;;;;;0.95;0.95;;;;;;;-144.22;100.00;60274.75;7611220;23;20216;-69
2022/08/20 14:18:51;;;;;;;1.40;1.30;;;;;;;-144.22;100.00;60274.75;7614238;23;20340;-66
2022/08/20 14:21:53;;;;;;;2.28;0.98;;;;;;;-144.22;100.00;60274.75;7612739;23;20539;-71
2022/08/20 14:24:55;;;;;;;0.90;0.90;;;;;;;-144.22;100.00;60274.75;7587230;23;20678;-66
2022/08/20 14:28:07;;;;;;;0.95;0.95;;;;;;;-144.22;100.00;60274.75;7612229;23;20287;-66
2022/08/20 14:31:09;;;;;;;1.20;1.10;;;;;;;-144.22;100.00;60274.75;7613718;23;20629;-66
2022/08/20 14:34:11;;;;;;;1.40;1.30;;;;;;;-144.22;100.00;60274.75;7614781;23;20266;-66
2022/08/20 14:37:19;;;;;;;1.50;1.40;;;;;;;-144.22;100.00;60274.75;7611833;23;20668;-68
2022/08/20 14:40:24;;;;;;;1.52;1.42;;;;;;;-144.22;100.00;60274.75;7582955;23;20208;-68
2022/08/20 14:43:25;;;;;;;1.60;1.50;;;;;;;-144.22;100.00;60274.75;7614953;23;20618;-68
2022/08/20 14:46:28;;;;;;;1.80;1.70;;;;;;;-144.22;100.00;60274.75;7613213;23;20620;-66
2022/08/20 14:49:33;;;;;;;1.83;1.73;;;;;;;-144.22;100.00;60274.75;7585227;23;20668;-67
2022/08/20 14:52:35;;;;;;;1.73;1.58;;;;;;;-144.22;100.00;60274.75;7611903;23;20262;-66
2022/08/20 14:55:37;;;;;;;1.80;1.70;;;;;;;-144.22;100.00;60274.75;7609684;23;20216;-66
2022/08/20 14:58:39;;;;;;;2.17;2.08;;;;;;;-144.22;100.00;60274.75;7612450;23;20215;-65
2022/08/20 15:01:42;;;;;;;2.45;2.25;;;;;;;-144.22;100.00;60274.75;7612725;23;20680;-66
2022/08/20 15:04:44;;;;;;;2.50;2.30;;;;;;;-144.22;100.00;60274.75;7613506;23;20298;-66
2022/08/20 15:07:55;;;;;;;2.30;2.00;;;;;;;-144.22;100.00;60274.75;7613002;23;20246;-66
2022/08/20 15:10:57;;;;;;;2.58;1.73;;;;;;;-144.22;100.00;60274.75;7615349;23;20236;-66